createdAt,value
2018-02-24T00:04:03.000Z,24.616
2018-02-24T00:14:03.000Z,24.536
2018-02-24T00:24:03.000Z,24.565
2018-02-24T00:34:06.000Z,24.595
2018-02-24T00:44:03.000Z,24.789
2018-02-24T00:54:03.000Z,24.667
2018-02-24T01:04:03.000Z,24.545
2018-02-24T01:14:03.000Z,24.652
2018-02-24T01:24:03.000Z,24.672
2018-02-24T01:34:03.000Z,24.626
2018-02-24T01:44:03.000Z,24.732
2018-02-24T01:54:03.000Z,24.773
2018-02-24T02:04:03.000Z,24.826
2018-02-24T02:14:03.000Z,24.867
2018-02-24T02:24:03.000Z,24.833
2018-02-24T02:34:03.000Z,24.928
2018-02-24T02:44:03.000Z,24.925
2018-02-24T02:54:03.000Z,24.957
2018-02-24T03:04:03.000Z,24.987
2018-02-24T03:14:03.000Z,24.876
2018-02-24T03:24:03.000Z,25.026
2018-02-24T03:34:03.000Z,25.056
2018-02-24T03:44:03.000Z,24.946
2018-02-24T03:54:03.000Z,24.932
2018-02-24T04:04:03.000Z,24.931
2018-02-24T04:14:03.000Z,25.016
2018-02-24T04:24:03.000Z,24.959
2018-02-24T04:34:03.000Z,25.055
2018-02-24T04:44:03.000Z,25.203
2018-02-24T04:54:03.000Z,24.729
2018-02-24T05:04:03.000Z,24.321
2018-02-24T05:14:03.000Z,24.325
2018-02-24T05:24:03.000Z,24.02
2018-02-24T05:34:03.000Z,23.833
2018-02-24T05:44:03.000Z,23.832
2018-02-24T05:54:03.000Z,23.798
2018-02-24T06:04:03.000Z,23.842
2018-02-24T06:14:03.000Z,23.723
2018-02-24T06:24:04.000Z,23.291
2018-02-24T06:34:04.000Z,23.225
2018-02-24T06:44:04.000Z,23.182
2018-02-24T06:54:04.000Z,22.966
2018-02-24T07:04:04.000Z,22.629
2018-02-24T07:14:04.000Z,22.436
2018-02-24T07:24:04.000Z,22.361
2018-02-24T07:34:04.000Z,22.231
2018-02-24T07:44:04.000Z,22.887
2018-02-24T07:54:04.000Z,22.78
2018-02-24T08:04:04.000Z,22.824
2018-02-24T08:14:04.000Z,22.718
2018-02-24T08:24:04.000Z,22.546
2018-02-24T08:34:04.000Z,22.241
2018-02-24T08:44:04.000Z,21.991
2018-02-24T08:54:04.000Z,22.114
2018-02-24T09:04:04.000Z,22.184
2018-02-24T09:14:04.000Z,22.156
2018-02-24T09:24:04.000Z,21.524
2018-02-24T09:34:04.000Z,20.851
2018-02-24T09:44:04.000Z,20.793
2018-02-24T09:54:04.000Z,20.477
2018-02-24T10:04:04.000Z,20.14
2018-02-24T10:14:04.000Z,19.882
2018-02-24T10:24:04.000Z,19.589
2018-02-24T10:34:04.000Z,19.11
2018-02-24T10:44:04.000Z,18.862
2018-02-24T10:54:04.000Z,18.426
2018-02-24T11:04:04.000Z,18.099
2018-02-24T11:14:04.000Z,18.694
2018-02-24T11:24:04.000Z,18.112
2018-02-24T11:34:04.000Z,17.64
2018-02-24T11:44:04.000Z,17.731
2018-02-24T11:54:04.000Z,17.766
2018-02-24T12:04:04.000Z,17.701
2018-02-24T12:14:04.000Z,18.383
2018-02-24T12:24:04.000Z,18.625
2018-02-24T12:34:04.000Z,18.744
2018-02-24T12:44:04.000Z,18.688
2018-02-24T12:54:04.000Z,18.171
2018-02-24T13:04:04.000Z,18.468
2018-02-24T13:14:04.000Z,18.258
2018-02-24T13:24:04.000Z,18.005
2018-02-24T13:34:04.000Z,18.159
2018-02-24T13:44:04.000Z,17.565
2018-02-24T13:54:04.000Z,17.909
2018-02-24T14:04:04.000Z,18.402
2018-02-24T14:14:04.000Z,18.678
2018-02-24T14:24:05.000Z,18.447
2018-02-24T14:34:05.000Z,18.635
2018-02-24T14:44:05.000Z,18.977
2018-02-24T14:54:05.000Z,18.845
2018-02-24T15:04:05.000Z,18.944
2018-02-24T15:14:05.000Z,19.251
2018-02-24T15:24:05.000Z,19.318
2018-02-24T15:34:05.000Z,19.46
2018-02-24T15:44:05.000Z,19.646
2018-02-24T15:54:05.000Z,19.81
2018-02-24T16:04:05.000Z,19.756
2018-02-24T16:14:05.000Z,19.635
2018-02-24T16:34:05.000Z,20.029
2018-02-24T16:44:05.000Z,20.116
2018-02-24T16:54:05.000Z,20.312
2018-02-24T17:04:05.000Z,20.323
2018-02-24T17:14:05.000Z,20.673
2018-02-24T17:24:09.000Z,20.923
2018-02-24T17:34:05.000Z,21.067
2018-02-24T17:44:05.000Z,21.623
2018-02-24T17:54:05.000Z,21.468
2018-02-24T18:04:05.000Z,21.411
2018-02-24T18:14:05.000Z,21.441
2018-02-24T18:24:05.000Z,22.132
2018-02-24T18:34:05.000Z,22.912
2018-02-24T18:44:05.000Z,22.941
2018-02-24T18:54:05.000Z,24.597
2018-02-24T19:04:05.000Z,25.068
2018-02-24T19:14:05.000Z,25.037
2018-02-24T19:24:07.000Z,24.854
2018-02-24T19:44:09.000Z,24.545
2018-02-24T19:54:05.000Z,24.26
2018-02-24T20:04:05.000Z,24.358
2018-02-24T20:14:05.000Z,24.194
2018-02-24T20:24:05.000Z,24.041
2018-02-24T20:34:05.000Z,24.137
2018-02-24T20:44:05.000Z,24.192
2018-02-24T20:54:05.000Z,24.289
2018-02-24T21:04:05.000Z,24.102
2018-02-24T21:14:05.000Z,23.728
2018-02-24T21:24:05.000Z,23.738
2018-02-24T21:34:05.000Z,23.912
2018-02-24T21:44:05.000Z,23.452
2018-02-24T21:54:06.000Z,23.692
2018-02-24T22:04:05.000Z,23.625
2018-02-24T22:14:05.000Z,23.734
2018-02-24T22:24:05.000Z,24.205
2018-02-24T22:34:05.000Z,24.213
2018-02-24T22:44:06.000Z,24.311
2018-02-24T22:54:06.000Z,24.506
2018-02-24T23:04:06.000Z,24.234
2018-02-24T23:14:06.000Z,24.298
2018-02-24T23:24:06.000Z,24.251
2018-02-24T23:34:06.000Z,24.688
2018-02-24T23:44:06.000Z,24.863
2018-02-24T23:54:06.000Z,24.805
